createdAt,value
2019-01-13T00:02:48.007Z,100055.80
2019-01-13T00:07:50.061Z,100047.06
2019-01-13T00:12:52.491Z,100051.63
2019-01-13T00:17:54.566Z,100040.95
2019-01-13T00:22:56.621Z,100041.06
2019-01-13T00:27:58.686Z,100042.66
2019-01-13T00:33:00.784Z,100050.48
2019-01-13T00:38:02.822Z,100057.77
2019-01-13T00:43:04.977Z,100064.30
2019-01-13T00:48:07.092Z,100063.80
2019-01-13T00:53:09.238Z,100062.98
2019-01-13T00:58:11.328Z,100057.83
2019-01-13T01:03:13.435Z,100064.90
2019-01-13T01:08:15.714Z,100075.75
2019-01-13T01:13:17.769Z,100081.51
2019-01-13T01:18:19.843Z,100090.47
2019-01-13T01:23:22.158Z,100082.02
2019-01-13T01:28:24.190Z,100074.59
2019-01-13T01:33:26.789Z,100076.96
2019-01-13T01:38:28.869Z,100077.00
2019-01-13T01:43:30.967Z,100079.00
2019-01-13T01:48:33.088Z,100083.33
2019-01-13T01:53:35.168Z,100079.11
2019-01-13T01:58:37.182Z,100082.00
2019-01-13T02:03:39.398Z,100063.41
2019-01-13T02:08:41.473Z,100062.41
2019-01-13T02:13:43.608Z,100066.70
2019-01-13T02:18:45.657Z,100068.02
2019-01-13T02:23:47.740Z,100059.55
2019-01-13T02:28:49.935Z,100055.88
2019-01-13T02:33:52.001Z,100067.41
2019-01-13T02:38:54.073Z,100064.52
2019-01-13T02:43:56.164Z,100077.05
2019-01-13T02:48:58.289Z,100066.38
2019-01-13T02:54:00.353Z,100061.48
2019-01-13T02:59:02.444Z,100059.78
2019-01-13T03:04:04.531Z,100064.98
2019-01-13T03:09:07.421Z,100065.91
2019-01-13T03:14:09.501Z,100041.97
2019-01-13T03:19:11.511Z,100035.96
2019-01-13T03:24:13.649Z,100034.34
2019-01-13T03:29:15.718Z,100029.30
2019-01-13T03:34:18.057Z,100033.95
2019-01-13T03:39:20.170Z,100018.08
2019-01-13T03:44:22.207Z,100005.73
2019-01-13T03:49:24.341Z,100003.66
2019-01-13T03:54:26.455Z,100014.80
2019-01-13T03:59:28.532Z,100008.69
2019-01-13T04:04:30.566Z,100002.47
2019-01-13T04:09:32.602Z,100002.23
2019-01-13T04:14:35.053Z,100001.13
2019-01-13T04:19:37.095Z,100012.48
2019-01-13T04:24:39.171Z,100017.26
2019-01-13T04:29:41.206Z,100005.55
2019-01-13T04:34:43.352Z,100007.30
2019-01-13T04:39:45.448Z,99980.87
2019-01-13T04:44:47.519Z,99966.80
2019-01-13T04:49:49.657Z,99960.63
2019-01-13T04:54:51.673Z,99957.48
2019-01-13T04:59:54.042Z,99947.55
2019-01-13T05:04:56.089Z,99946.16
2019-01-13T05:09:58.111Z,99949.66
2019-01-13T05:15:00.184Z,99914.64
2019-01-13T05:25:31.860Z,99903.30
2019-01-13T05:30:33.963Z,99900.73
2019-01-13T05:35:36.036Z,99899.34
2019-01-13T05:40:38.071Z,99893.00
2019-01-13T05:45:40.216Z,99888.11
2019-01-13T05:50:42.291Z,99894.17
2019-01-13T05:55:44.682Z,99891.80
2019-01-13T06:00:46.762Z,99819.42
2019-01-13T06:05:49.040Z,99863.98
2019-01-13T06:10:51.077Z,99848.55
2019-01-13T06:15:53.170Z,99850.97
2019-01-13T06:20:55.239Z,99836.39
2019-01-13T06:25:57.334Z,99813.27
2019-01-13T06:30:59.651Z,99808.95
2019-01-13T06:36:02.150Z,99797.21
2019-01-13T06:41:04.276Z,99810.61
2019-01-13T06:46:06.316Z,99811.59
2019-01-13T06:51:08.473Z,99817.43
2019-01-13T06:56:10.501Z,99808.92
2019-01-13T07:01:12.704Z,99808.66
2019-01-13T07:06:14.803Z,99809.13
2019-01-13T07:11:16.910Z,99805.08
2019-01-13T07:16:18.996Z,99800.66
2019-01-13T07:21:21.018Z,99799.68
2019-01-13T07:26:23.074Z,99805.86
2019-01-13T07:31:44.567Z,99815.73
2019-01-13T07:36:46.643Z,99820.08
2019-01-13T07:41:48.706Z,99815.96
2019-01-13T07:46:50.788Z,99813.97
2019-01-13T07:51:52.994Z,99800.52
2019-01-13T07:56:55.434Z,99790.27
2019-01-13T08:01:57.446Z,99774.55
2019-01-13T08:06:59.523Z,99770.30
2019-01-13T08:12:01.786Z,99769.27
2019-01-13T08:17:04.094Z,99761.52
2019-01-13T08:22:06.192Z,99753.38
2019-01-13T08:27:08.335Z,99758.33
2019-01-13T08:32:11.042Z,99750.39
2019-01-13T08:37:13.169Z,99735.72
2019-01-13T08:42:15.175Z,99730.91
2019-01-13T08:47:17.243Z,99716.45
2019-01-13T08:52:19.395Z,99708.14
2019-01-13T08:57:21.518Z,99701.61
2019-01-13T09:02:23.656Z,99694.28
2019-01-13T09:07:25.817Z,99687.13
2019-01-13T09:12:27.947Z,99681.06
2019-01-13T09:17:30.055Z,99662.17
2019-01-13T09:22:32.106Z,99647.08
2019-01-13T09:27:37.002Z,99642.98
2019-01-13T09:32:39.639Z,99641.66
2019-01-13T09:37:43.146Z,99631.39
2019-01-13T09:42:45.229Z,99606.81
2019-01-13T09:47:47.405Z,99604.92
2019-01-13T09:52:49.622Z,99602.10
2019-01-13T09:57:51.956Z,99600.62
2019-01-13T10:02:54.425Z,99595.02
2019-01-13T10:07:56.494Z,99582.73
2019-01-13T10:12:58.583Z,99570.38
2019-01-13T10:18:00.646Z,99562.45
2019-01-13T10:23:02.834Z,99545.94
2019-01-13T10:28:05.441Z,99556.75
2019-01-13T10:33:07.544Z,99540.97
2019-01-13T10:38:09.707Z,99537.77
2019-01-13T10:43:11.837Z,99510.70
2019-01-13T10:48:13.918Z,99503.15
2019-01-13T10:53:15.971Z,99472.81
2019-01-13T10:58:18.354Z,99461.11
2019-01-13T11:03:20.730Z,99456.52
2019-01-13T11:08:22.846Z,99449.66
2019-01-13T11:13:24.963Z,99444.50
2019-01-13T11:18:27.100Z,99432.72
2019-01-13T11:23:29.205Z,99423.78
2019-01-13T11:28:31.438Z,99408.66
2019-01-13T11:33:33.456Z,99402.73
2019-01-13T11:38:40.947Z,99415.81
2019-01-13T11:44:04.835Z,99391.87
2019-01-13T11:49:09.524Z,99383.70
2019-01-13T11:54:11.880Z,99358.13
2019-01-13T11:59:14.075Z,99335.14
2019-01-13T12:04:16.206Z,99331.48
2019-01-13T12:09:18.286Z,99323.17
2019-01-13T12:14:20.373Z,99297.80
2019-01-13T12:19:23.021Z,99282.59
2019-01-13T12:24:25.199Z,99309.83
2019-01-13T12:29:30.877Z,99277.19
2019-01-13T12:34:33.064Z,99290.06
2019-01-13T12:39:35.295Z,99293.02
2019-01-13T12:44:39.788Z,99275.80
2019-01-13T12:49:41.927Z,99269.75
2019-01-13T12:54:44.026Z,99262.83
2019-01-13T13:00:07.213Z,99274.30
2019-01-13T13:05:10.381Z,99270.88
2019-01-13T13:10:20.214Z,99260.75
2019-01-13T13:15:22.672Z,99255.28
2019-01-13T13:25:54.488Z,99225.19
2019-01-13T13:30:56.868Z,99208.81
2019-01-13T13:35:59.037Z,99203.88
2019-01-13T13:41:01.296Z,99199.73
2019-01-13T13:46:24.647Z,99175.30
2019-01-13T13:51:26.849Z,99164.23
2019-01-13T13:56:28.876Z,99175.78
2019-01-13T14:01:31.263Z,99167.25
2019-01-13T14:06:33.305Z,99158.54
2019-01-13T14:11:35.370Z,99144.73
2019-01-13T14:16:37.423Z,99151.55
2019-01-13T14:21:39.419Z,99146.73
2019-01-13T14:26:41.449Z,99150.59
2019-01-13T14:31:43.458Z,99150.39
2019-01-13T14:36:45.549Z,99140.37
2019-01-13T14:41:47.690Z,99149.94
2019-01-13T14:46:49.803Z,99139.79
2019-01-13T14:51:52.205Z,99128.97
2019-01-13T14:56:54.232Z,99107.73
2019-01-13T15:01:56.254Z,99091.64
2019-01-13T15:06:58.279Z,99079.03
2019-01-13T15:12:00.652Z,99065.23
2019-01-13T15:17:02.626Z,99056.20
2019-01-13T15:22:04.645Z,99062.78
2019-01-13T15:27:07.322Z,99050.41
2019-01-13T15:32:09.622Z,99041.21
2019-01-13T15:37:11.658Z,99028.30
2019-01-13T15:42:13.747Z,99042.52
2019-01-13T15:47:15.758Z,99031.61
2019-01-13T15:52:17.855Z,99021.84
2019-01-13T15:57:19.937Z,99007.80
2019-01-13T16:02:22.087Z,99006.62
2019-01-13T16:07:24.121Z,99000.47
2019-01-13T16:12:26.227Z,99013.14
2019-01-13T16:17:28.564Z,99021.07
2019-01-13T16:22:30.916Z,98992.88
2019-01-13T16:27:33.016Z,98984.07
2019-01-13T16:32:38.086Z,98975.73
2019-01-13T16:37:42.219Z,98972.02
2019-01-13T16:42:44.462Z,98961.20
2019-01-13T16:47:46.766Z,98974.95
2019-01-13T16:52:50.966Z,98985.50
2019-01-13T16:57:53.252Z,98981.39
2019-01-13T17:08:11.586Z,98972.78
2019-01-13T17:13:13.663Z,98972.10
2019-01-13T17:18:15.776Z,98951.55
2019-01-13T17:23:17.849Z,98951.75
2019-01-13T17:28:20.012Z,98951.08
2019-01-13T17:33:22.067Z,98948.30
2019-01-13T17:38:24.162Z,98929.26
2019-01-13T17:43:26.193Z,98911.77
2019-01-13T17:48:28.691Z,98913.30
2019-01-13T17:53:31.002Z,98917.41
2019-01-13T17:58:33.087Z,98916.31
2019-01-13T18:03:39.179Z,98911.45
2019-01-13T18:08:41.351Z,98914.27
2019-01-13T18:13:43.434Z,98907.43
2019-01-13T18:18:45.517Z,98908.03
2019-01-13T18:23:47.568Z,98916.08
2019-01-13T18:28:49.648Z,98913.41
2019-01-13T18:33:51.932Z,98919.25
2019-01-13T18:38:54.027Z,98922.70
2019-01-13T18:43:56.469Z,98908.75
2019-01-13T18:48:58.666Z,98920.86
2019-01-13T18:54:01.184Z,98901.35
2019-01-13T18:59:03.415Z,98909.03
2019-01-13T19:04:05.677Z,98906.54
2019-01-13T19:09:09.907Z,98913.78
2019-01-13T19:14:35.523Z,98877.03
2019-01-13T19:20:16.494Z,98854.59
2019-01-13T19:25:38.094Z,98879.75
2019-01-13T19:30:40.301Z,98882.84
2019-01-13T19:35:42.379Z,98883.85
2019-01-13T19:40:44.521Z,98875.02
2019-01-13T19:45:46.691Z,98866.49
2019-01-13T19:50:49.500Z,98895.03
2019-01-13T19:55:51.795Z,98908.88
2019-01-13T20:00:54.038Z,98900.70
2019-01-13T20:05:56.271Z,98924.13
2019-01-13T20:10:58.800Z,98910.50
2019-01-13T20:16:01.088Z,98891.24
2019-01-13T20:21:03.205Z,98885.09
2019-01-13T20:26:05.658Z,98888.89
2019-01-13T20:31:08.040Z,98911.55
2019-01-13T20:36:10.457Z,98892.06
2019-01-13T20:41:12.617Z,98898.02
2019-01-13T20:46:14.871Z,98894.25
2019-01-13T20:51:16.909Z,98927.20
2019-01-13T20:56:19.043Z,98966.80
2019-01-13T21:01:21.217Z,99015.50
2019-01-13T21:06:23.579Z,98987.58
2019-01-13T21:11:25.689Z,98977.11
2019-01-13T21:16:27.731Z,98963.67
2019-01-13T21:21:29.766Z,98973.50
2019-01-13T21:26:31.849Z,98964.36
2019-01-13T21:31:33.926Z,98976.73
2019-01-13T21:36:35.981Z,98965.02
2019-01-13T21:41:38.006Z,98979.95
2019-01-13T21:46:40.080Z,98977.77
2019-01-13T21:51:42.093Z,98989.09
2019-01-13T21:56:44.543Z,98992.34
2019-01-13T22:01:46.592Z,99000.84
2019-01-13T22:06:48.607Z,99009.53
2019-01-13T22:11:50.711Z,99023.39
2019-01-13T22:16:52.982Z,99016.77
2019-01-13T22:21:55.057Z,99004.14
2019-01-13T22:26:57.094Z,99017.56
2019-01-13T22:31:59.117Z,99012.25
2019-01-13T22:37:02.066Z,99012.27
2019-01-13T22:42:04.251Z,98999.70
2019-01-13T22:47:06.306Z,98999.30
2019-01-13T22:52:08.633Z,99009.72
2019-01-13T22:57:10.773Z,99013.58
2019-01-13T23:02:12.783Z,99017.56
2019-01-13T23:07:14.997Z,99015.84
2019-01-13T23:12:17.120Z,99013.20
2019-01-13T23:17:19.229Z,99022.48
2019-01-13T23:22:22.342Z,99028.05
2019-01-13T23:27:24.428Z,99037.02
2019-01-13T23:32:26.696Z,99058.48
2019-01-13T23:37:28.689Z,99065.20
2019-01-13T23:42:31.035Z,99076.84
2019-01-13T23:47:33.077Z,99080.59
2019-01-13T23:52:35.603Z,99078.14
2019-01-13T23:57:37.741Z,99093.28
